sensor_id;sensor_type;location;lat;lon;timestamp;temperature;humidity
13148;DHT22;6639;50.956;4.242;2023-07-20T00:00:09;24.80;99.70
13148;DHT22;6639;50.956;4.242;2023-07-20T00:02:39;24.70;99.90
13148;DHT22;6639;50.956;4.242;2023-07-20T00:05:06;24.50;99.90
13148;DHT22;6639;50.956;4.242;2023-07-20T00:07:33;24.40;99.90
13148;DHT22;6639;50.956;4.242;2023-07-20T00:10:00;24.40;99.90
13148;DHT22;6639;50.956;4.242;2023-07-20T00:12:27;24.40;99.90
13148;DHT22;6639;50.956;4.242;2023-07-20T00:14:54;24.30;99.90
13148;DHT22;6639;50.956;4.242;2023-07-20T00:17:22;24.50;99.90
13148;DHT22;6639;50.956;4.242;2023-07-20T00:19:49;24.60;99.90
13148;DHT22;6639;50.956;4.242;2023-07-20T00:22:16;24.50;99.90
13148;DHT22;6639;50.956;4.242;2023-07-20T00:24:43;24.60;99.90
13148;DHT22;6639;50.956;4.242;2023-07-20T00:27:10;24.80;99.90
13148;DHT22;6639;50.956;4.242;2023-07-20T00:29:36;24.80;99.90
13148;DHT22;6639;50.956;4.242;2023-07-20T00:32:04;24.60;99.90
13148;DHT22;6639;50.956;4.242;2023-07-20T00:34:33;24.60;99.90
13148;DHT22;6639;50.956;4.242;2023-07-20T00:37:00;24.80;99.90
13148;DHT22;6639;50.956;4.242;2023-07-20T00:39:27;24.80;99.90
13148;DHT22;6639;50.956;4.242;2023-07-20T00:41:53;24.80;99.90
13148;DHT22;6639;50.956;4.242;2023-07-20T00:44:21;24.70;99.90
13148;DHT22;6639;50.956;4.242;2023-07-20T00:46:48;24.90;99.90
13148;DHT22;6639;50.956;4.242;2023-07-20T00:49:15;24.80;99.90
13148;DHT22;6639;50.956;4.242;2023-07-20T00:51:48;25.00;99.90
13148;DHT22;6639;50.956;4.242;2023-07-20T00:54:15;25.00;99.90
13148;DHT22;6639;50.956;4.242;2023-07-20T00:56:43;25.00;99.90
13148;DHT22;6639;50.956;4.242;2023-07-20T00:59:11;25.20;99.90
13148;DHT22;6639;50.956;4.242;2023-07-20T01:01:37;25.20;99.90
13148;DHT22;6639;50.956;4.242;2023-07-20T01:04:05;25.20;99.90
13148;DHT22;6639;50.956;4.242;2023-07-20T01:06:36;25.30;99.90
13148;DHT22;6639;50.956;4.242;2023-07-20T01:09:11;25.40;99.90
13148;DHT22;6639;50.956;4.242;2023-07-20T01:11:43;25.40;99.90
13148;DHT22;6639;50.956;4.242;2023-07-20T01:14:14;25.20;99.90
13148;DHT22;6639;50.956;4.242;2023-07-20T01:16:42;25.20;99.90
13148;DHT22;6639;50.956;4.242;2023-07-20T01:19:09;25.10;99.90
13148;DHT22;6639;50.956;4.242;2023-07-20T01:21:42;25.10;99.90
13148;DHT22;6639;50.956;4.242;2023-07-20T01:24:51;25.10;99.90
13148;DHT22;6639;50.956;4.242;2023-07-20T01:30:45;25.00;99.90
13148;DHT22;6639;50.956;4.242;2023-07-20T01:33:16;24.90;99.90
13148;DHT22;6639;50.956;4.242;2023-07-20T01:35:47;25.10;99.90
13148;DHT22;6639;50.956;4.242;2023-07-20T01:38:14;25.00;99.90
13148;DHT22;6639;50.956;4.242;2023-07-20T01:40:41;25.00;99.90
13148;DHT22;6639;50.956;4.242;2023-07-20T01:43:08;25.00;99.90
13148;DHT22;6639;50.956;4.242;2023-07-20T01:45:35;25.00;99.90
13148;DHT22;6639;50.956;4.242;2023-07-20T01:48:03;24.90;99.90
13148;DHT22;6639;50.956;4.242;2023-07-20T01:50:31;25.00;99.90
13148;DHT22;6639;50.956;4.242;2023-07-20T01:53:00;25.10;99.90
13148;DHT22;6639;50.956;4.242;2023-07-20T01:55:27;25.00;99.90
13148;DHT22;6639;50.956;4.242;2023-07-20T01:57:55;25.00;99.90
13148;DHT22;6639;50.956;4.242;2023-07-20T02:00:22;24.90;99.90
13148;DHT22;6639;50.956;4.242;2023-07-20T02:02:50;24.90;99.90
13148;DHT22;6639;50.956;4.242;2023-07-20T02:05:17;25.00;99.90
13148;DHT22;6639;50.956;4.242;2023-07-20T02:07:45;24.90;99.90
13148;DHT22;6639;50.956;4.242;2023-07-20T02:10:12;24.80;99.90
13148;DHT22;6639;50.956;4.242;2023-07-20T02:12:39;24.90;99.90
13148;DHT22;6639;50.956;4.242;2023-07-20T02:15:07;25.10;99.90
13148;DHT22;6639;50.956;4.242;2023-07-20T02:17:34;25.20;99.90
13148;DHT22;6639;50.956;4.242;2023-07-20T02:20:00;25.10;99.90
13148;DHT22;6639;50.956;4.242;2023-07-20T02:22:28;25.10;99.90
13148;DHT22;6639;50.956;4.242;2023-07-20T02:24:56;25.20;99.90
13148;DHT22;6639;50.956;4.242;2023-07-20T02:27:23;25.10;99.90
13148;DHT22;6639;50.956;4.242;2023-07-20T02:29:50;25.10;99.90
13148;DHT22;6639;50.956;4.242;2023-07-20T02:32:17;25.10;99.90
13148;DHT22;6639;50.956;4.242;2023-07-20T02:34:44;25.00;99.90
13148;DHT22;6639;50.956;4.242;2023-07-20T02:37:11;25.10;99.90
13148;DHT22;6639;50.956;4.242;2023-07-20T02:39:38;25.10;99.90
13148;DHT22;6639;50.956;4.242;2023-07-20T02:42:07;25.20;99.90
13148;DHT22;6639;50.956;4.242;2023-07-20T02:44:34;25.20;99.90
13148;DHT22;6639;50.956;4.242;2023-07-20T02:47:01;25.30;99.90
13148;DHT22;6639;50.956;4.242;2023-07-20T02:49:28;25.40;99.90
13148;DHT22;6639;50.956;4.242;2023-07-20T02:51:55;25.30;99.90
13148;DHT22;6639;50.956;4.242;2023-07-20T02:54:22;25.30;99.80
13148;DHT22;6639;50.956;4.242;2023-07-20T02:56:49;25.30;99.80
13148;DHT22;6639;50.956;4.242;2023-07-20T02:59:17;25.10;99.90
13148;DHT22;6639;50.956;4.242;2023-07-20T03:01:44;25.10;99.90
13148;DHT22;6639;50.956;4.242;2023-07-20T03:04:11;25.00;99.90
13148;DHT22;6639;50.956;4.242;2023-07-20T03:06:37;24.80;99.90
13148;DHT22;6639;50.956;4.242;2023-07-20T03:09:04;24.70;99.90
13148;DHT22;6639;50.956;4.242;2023-07-20T03:11:32;24.80;99.90
13148;DHT22;6639;50.956;4.242;2023-07-20T03:13:59;24.60;99.90
13148;DHT22;6639;50.956;4.242;2023-07-20T03:16:28;24.60;99.90
13148;DHT22;6639;50.956;4.242;2023-07-20T03:18:58;24.60;99.90
13148;DHT22;6639;50.956;4.242;2023-07-20T03:21:25;24.70;99.90
13148;DHT22;6639;50.956;4.242;2023-07-20T03:23:52;24.80;99.90
13148;DHT22;6639;50.956;4.242;2023-07-20T03:26:19;24.90;99.90
13148;DHT22;6639;50.956;4.242;2023-07-20T03:28:46;25.00;99.90
13148;DHT22;6639;50.956;4.242;2023-07-20T03:31:13;24.90;99.90
13148;DHT22;6639;50.956;4.242;2023-07-20T03:33:42;24.80;99.90
13148;DHT22;6639;50.956;4.242;2023-07-20T03:36:09;24.70;99.90
13148;DHT22;6639;50.956;4.242;2023-07-20T03:38:36;24.80;99.90
13148;DHT22;6639;50.956;4.242;2023-07-20T03:41:03;24.90;99.90
13148;DHT22;6639;50.956;4.242;2023-07-20T03:43:30;25.00;99.90
13148;DHT22;6639;50.956;4.242;2023-07-20T03:45:57;25.00;99.90
13148;DHT22;6639;50.956;4.242;2023-07-20T03:48:24;25.10;99.90
13148;DHT22;6639;50.956;4.242;2023-07-20T03:50:53;25.20;99.90
13148;DHT22;6639;50.956;4.242;2023-07-20T03:53:20;25.30;99.90
13148;DHT22;6639;50.956;4.242;2023-07-20T03:55:48;25.40;99.90
13148;DHT22;6639;50.956;4.242;2023-07-20T03:58:15;25.40;99.90
13148;DHT22;6639;50.956;4.242;2023-07-20T04:00:44;25.20;99.90
13148;DHT22;6639;50.956;4.242;2023-07-20T04:03:12;25.20;99.90
13148;DHT22;6639;50.956;4.242;2023-07-20T04:05:38;25.30;99.90
13148;DHT22;6639;50.956;4.242;2023-07-20T04:08:07;25.00;99.90
13148;DHT22;6639;50.956;4.242;2023-07-20T04:10:34;24.60;99.90
13148;DHT22;6639;50.956;4.242;2023-07-20T04:13:01;24.50;99.90
13148;DHT22;6639;50.956;4.242;2023-07-20T04:15:28;24.60;99.90
13148;DHT22;6639;50.956;4.242;2023-07-20T04:17:55;24.80;99.90
13148;DHT22;6639;50.956;4.242;2023-07-20T04:20:23;24.90;99.90
13148;DHT22;6639;50.956;4.242;2023-07-20T04:22:50;25.00;99.90
13148;DHT22;6639;50.956;4.242;2023-07-20T04:25:19;25.00;99.90
13148;DHT22;6639;50.956;4.242;2023-07-20T04:27:46;25.10;99.90
13148;DHT22;6639;50.956;4.242;2023-07-20T04:30:13;25.10;99.90
13148;DHT22;6639;50.956;4.242;2023-07-20T04:32:41;25.00;99.90
13148;DHT22;6639;50.956;4.242;2023-07-20T04:35:09;25.10;99.90
13148;DHT22;6639;50.956;4.242;2023-07-20T04:37:36;25.00;99.90
13148;DHT22;6639;50.956;4.242;2023-07-20T04:40:04;25.00;99.90
13148;DHT22;6639;50.956;4.242;2023-07-20T04:42:33;25.00;99.90
13148;DHT22;6639;50.956;4.242;2023-07-20T04:44:59;25.20;99.90
13148;DHT22;6639;50.956;4.242;2023-07-20T04:47:26;25.00;99.90
13148;DHT22;6639;50.956;4.242;2023-07-20T04:49:53;25.20;99.90
13148;DHT22;6639;50.956;4.242;2023-07-20T04:52:20;25.30;99.90
13148;DHT22;6639;50.956;4.242;2023-07-20T04:54:47;25.40;99.90
13148;DHT22;6639;50.956;4.242;2023-07-20T04:57:14;25.40;99.90
13148;DHT22;6639;50.956;4.242;2023-07-20T04:59:42;25.40;99.90
13148;DHT22;6639;50.956;4.242;2023-07-20T05:02:09;25.50;99.90
13148;DHT22;6639;50.956;4.242;2023-07-20T05:04:36;25.50;99.90
13148;DHT22;6639;50.956;4.242;2023-07-20T05:07:03;25.50;99.90
13148;DHT22;6639;50.956;4.242;2023-07-20T05:09:30;25.60;99.90
13148;DHT22;6639;50.956;4.242;2023-07-20T05:11:57;25.60;99.90
13148;DHT22;6639;50.956;4.242;2023-07-20T05:14:24;25.40;99.90
13148;DHT22;6639;50.956;4.242;2023-07-20T05:16:52;25.00;99.90
13148;DHT22;6639;50.956;4.242;2023-07-20T05:19:19;24.90;99.90
13148;DHT22;6639;50.956;4.242;2023-07-20T05:21:46;24.90;99.90
13148;DHT22;6639;50.956;4.242;2023-07-20T05:24:12;25.10;99.90
13148;DHT22;6639;50.956;4.242;2023-07-20T05:26:39;25.10;99.90
13148;DHT22;6639;50.956;4.242;2023-07-20T05:29:06;25.20;99.90
13148;DHT22;6639;50.956;4.242;2023-07-20T05:31:33;25.40;99.90
13148;DHT22;6639;50.956;4.242;2023-07-20T05:34:02;25.60;99.90
13148;DHT22;6639;50.956;4.242;2023-07-20T05:36:29;25.70;99.90
13148;DHT22;6639;50.956;4.242;2023-07-20T05:38:56;25.70;99.90
13148;DHT22;6639;50.956;4.242;2023-07-20T05:41:23;25.80;99.90
13148;DHT22;6639;50.956;4.242;2023-07-20T05:43:50;26.00;99.90
13148;DHT22;6639;50.956;4.242;2023-07-20T05:46:17;26.10;99.90
13148;DHT22;6639;50.956;4.242;2023-07-20T05:48:44;26.10;99.90
13148;DHT22;6639;50.956;4.242;2023-07-20T05:51:12;26.20;99.90
13148;DHT22;6639;50.956;4.242;2023-07-20T05:53:39;26.10;99.90
13148;DHT22;6639;50.956;4.242;2023-07-20T05:56:06;26.20;99.90
13148;DHT22;6639;50.956;4.242;2023-07-20T05:58:35;26.30;99.90
13148;DHT22;6639;50.956;4.242;2023-07-20T06:01:03;26.30;99.90
13148;DHT22;6639;50.956;4.242;2023-07-20T06:03:32;26.40;99.90
13148;DHT22;6639;50.956;4.242;2023-07-20T06:06:00;26.40;99.90
13148;DHT22;6639;50.956;4.242;2023-07-20T06:08:29;26.50;99.80
13148;DHT22;6639;50.956;4.242;2023-07-20T06:10:55;26.50;99.50
13148;DHT22;6639;50.956;4.242;2023-07-20T06:13:23;26.50;99.40
13148;DHT22;6639;50.956;4.242;2023-07-20T06:15:50;26.50;99.20
13148;DHT22;6639;50.956;4.242;2023-07-20T06:18:18;26.60;99.40
13148;DHT22;6639;50.956;4.242;2023-07-20T06:20:49;26.60;99.30
13148;DHT22;6639;50.956;4.242;2023-07-20T06:23:16;26.70;99.20
13148;DHT22;6639;50.956;4.242;2023-07-20T06:25:44;26.80;99.10
13148;DHT22;6639;50.956;4.242;2023-07-20T06:28:11;26.80;99.10
13148;DHT22;6639;50.956;4.242;2023-07-20T06:30:38;26.90;99.20
13148;DHT22;6639;50.956;4.242;2023-07-20T06:33:05;27.10;99.30
13148;DHT22;6639;50.956;4.242;2023-07-20T06:35:34;27.10;99.00
13148;DHT22;6639;50.956;4.242;2023-07-20T06:38:01;27.10;98.50
13148;DHT22;6639;50.956;4.242;2023-07-20T06:40:29;27.10;98.60
13148;DHT22;6639;50.956;4.242;2023-07-20T06:42:57;27.30;98.40
13148;DHT22;6639;50.956;4.242;2023-07-20T06:45:24;27.50;98.10
13148;DHT22;6639;50.956;4.242;2023-07-20T06:47:51;27.50;98.30
13148;DHT22;6639;50.956;4.242;2023-07-20T06:50:18;27.40;98.20
13148;DHT22;6639;50.956;4.242;2023-07-20T06:52:45;27.50;98.10
13148;DHT22;6639;50.956;4.242;2023-07-20T06:55:13;27.50;98.20
13148;DHT22;6639;50.956;4.242;2023-07-20T06:57:40;27.60;98.30
13148;DHT22;6639;50.956;4.242;2023-07-20T07:00:10;27.60;98.00
13148;DHT22;6639;50.956;4.242;2023-07-20T07:02:38;27.90;98.00
13148;DHT22;6639;50.956;4.242;2023-07-20T07:05:05;28.00;97.80
13148;DHT22;6639;50.956;4.242;2023-07-20T07:07:32;28.10;96.90
13148;DHT22;6639;50.956;4.242;2023-07-20T07:10:00;27.90;96.60
13148;DHT22;6639;50.956;4.242;2023-07-20T07:12:29;27.90;96.60
13148;DHT22;6639;50.956;4.242;2023-07-20T07:14:56;28.10;96.50
13148;DHT22;6639;50.956;4.242;2023-07-20T07:17:24;27.90;96.00
13148;DHT22;6639;50.956;4.242;2023-07-20T07:19:52;28.20;95.80
13148;DHT22;6639;50.956;4.242;2023-07-20T07:22:20;28.40;95.70
13148;DHT22;6639;50.956;4.242;2023-07-20T07:24:47;28.40;95.40
13148;DHT22;6639;50.956;4.242;2023-07-20T07:27:13;28.50;95.20
13148;DHT22;6639;50.956;4.242;2023-07-20T07:29:41;27.80;94.50
13148;DHT22;6639;50.956;4.242;2023-07-20T07:32:09;27.10;95.80
13148;DHT22;6639;50.956;4.242;2023-07-20T07:34:38;27.00;96.70
13148;DHT22;6639;50.956;4.242;2023-07-20T07:37:05;27.10;96.80
13148;DHT22;6639;50.956;4.242;2023-07-20T07:39:32;27.50;96.20
13148;DHT22;6639;50.956;4.242;2023-07-20T07:41:59;28.20;95.10
13148;DHT22;6639;50.956;4.242;2023-07-20T07:44:26;28.30;95.40
13148;DHT22;6639;50.956;4.242;2023-07-20T07:46:53;28.70;95.10
13148;DHT22;6639;50.956;4.242;2023-07-20T07:49:20;29.20;95.60
13148;DHT22;6639;50.956;4.242;2023-07-20T07:51:48;29.30;94.30
13148;DHT22;6639;50.956;4.242;2023-07-20T07:54:15;29.70;93.90
13148;DHT22;6639;50.956;4.242;2023-07-20T07:56:42;29.60;93.50
13148;DHT22;6639;50.956;4.242;2023-07-20T07:59:10;29.70;94.10
13148;DHT22;6639;50.956;4.242;2023-07-20T08:01:37;29.90;93.50
13148;DHT22;6639;50.956;4.242;2023-07-20T08:04:04;29.90;92.70
13148;DHT22;6639;50.956;4.242;2023-07-20T08:06:31;29.60;93.40
13148;DHT22;6639;50.956;4.242;2023-07-20T08:08:59;29.70;92.90
13148;DHT22;6639;50.956;4.242;2023-07-20T08:11:28;30.10;93.10
13148;DHT22;6639;50.956;4.242;2023-07-20T08:13:56;30.10;91.90
13148;DHT22;6639;50.956;4.242;2023-07-20T08:16:23;30.10;91.60
13148;DHT22;6639;50.956;4.242;2023-07-20T08:18:50;30.30;91.40
13148;DHT22;6639;50.956;4.242;2023-07-20T08:21:17;30.50;90.30
13148;DHT22;6639;50.956;4.242;2023-07-20T08:23:44;31.00;91.00
13148;DHT22;6639;50.956;4.242;2023-07-20T08:26:12;30.90;90.20
13148;DHT22;6639;50.956;4.242;2023-07-20T08:28:39;31.40;89.80
13148;DHT22;6639;50.956;4.242;2023-07-20T08:31:06;32.10;87.40
13148;DHT22;6639;50.956;4.242;2023-07-20T08:33:33;32.30;88.60
13148;DHT22;6639;50.956;4.242;2023-07-20T08:36:00;32.30;87.60
13148;DHT22;6639;50.956;4.242;2023-07-20T08:38:29;32.50;88.20
13148;DHT22;6639;50.956;4.242;2023-07-20T08:40:56;32.30;86.80
13148;DHT22;6639;50.956;4.242;2023-07-20T08:43:27;31.80;84.80
13148;DHT22;6639;50.956;4.242;2023-07-20T08:45:55;31.90;86.00
13148;DHT22;6639;50.956;4.242;2023-07-20T08:48:22;32.00;86.10
13148;DHT22;6639;50.956;4.242;2023-07-20T08:50:51;32.20;86.90
13148;DHT22;6639;50.956;4.242;2023-07-20T08:53:19;32.00;86.50
13148;DHT22;6639;50.956;4.242;2023-07-20T08:55:50;31.80;84.90
13148;DHT22;6639;50.956;4.242;2023-07-20T08:58:17;32.10;87.50
13148;DHT22;6639;50.956;4.242;2023-07-20T09:00:46;32.70;86.20
13148;DHT22;6639;50.956;4.242;2023-07-20T09:03:16;33.10;82.50
13148;DHT22;6639;50.956;4.242;2023-07-20T09:05:43;33.30;82.40
13148;DHT22;6639;50.956;4.242;2023-07-20T09:08:11;33.60;81.90
13148;DHT22;6639;50.956;4.242;2023-07-20T09:10:37;33.60;81.90
13148;DHT22;6639;50.956;4.242;2023-07-20T09:13:04;33.50;80.90
13148;DHT22;6639;50.956;4.242;2023-07-20T09:15:31;33.50;79.60
13148;DHT22;6639;50.956;4.242;2023-07-20T09:18:01;33.70;80.30
13148;DHT22;6639;50.956;4.242;2023-07-20T09:20:32;33.70;80.40
13148;DHT22;6639;50.956;4.242;2023-07-20T09:23:00;33.60;81.50
13148;DHT22;6639;50.956;4.242;2023-07-20T09:25:32;33.10;78.20
13148;DHT22;6639;50.956;4.242;2023-07-20T09:28:02;33.20;79.80
13148;DHT22;6639;50.956;4.242;2023-07-20T09:30:29;33.20;79.40
13148;DHT22;6639;50.956;4.242;2023-07-20T09:32:56;33.10;78.80
13148;DHT22;6639;50.956;4.242;2023-07-20T09:35:25;33.40;78.90
13148;DHT22;6639;50.956;4.242;2023-07-20T09:37:54;33.60;78.50
13148;DHT22;6639;50.956;4.242;2023-07-20T09:40:21;33.40;79.00
13148;DHT22;6639;50.956;4.242;2023-07-20T09:42:52;33.10;77.90
13148;DHT22;6639;50.956;4.242;2023-07-20T09:45:29;33.10;79.60
13148;DHT22;6639;50.956;4.242;2023-07-20T09:48:03;32.80;81.20
13148;DHT22;6639;50.956;4.242;2023-07-20T09:50:32;32.60;79.30
13148;DHT22;6639;50.956;4.242;2023-07-20T09:53:00;33.10;81.00
13148;DHT22;6639;50.956;4.242;2023-07-20T09:55:29;33.50;82.00
13148;DHT22;6639;50.956;4.242;2023-07-20T09:57:56;33.70;77.70
13148;DHT22;6639;50.956;4.242;2023-07-20T10:00:23;33.70;77.90
13148;DHT22;6639;50.956;4.242;2023-07-20T10:02:52;33.90;77.00
13148;DHT22;6639;50.956;4.242;2023-07-20T10:05:19;33.60;76.30
13148;DHT22;6639;50.956;4.242;2023-07-20T10:07:49;33.20;76.80
13148;DHT22;6639;50.956;4.242;2023-07-20T10:10:17;33.00;79.40
13148;DHT22;6639;50.956;4.242;2023-07-20T10:12:47;32.70;81.10
13148;DHT22;6639;50.956;4.242;2023-07-20T10:15:19;32.90;77.80
13148;DHT22;6639;50.956;4.242;2023-07-20T10:17:59;33.00;78.30
13148;DHT22;6639;50.956;4.242;2023-07-20T10:20:30;33.20;78.90
13148;DHT22;6639;50.956;4.242;2023-07-20T10:23:01;33.40;78.20
13148;DHT22;6639;50.956;4.242;2023-07-20T10:25:29;33.70;79.00
13148;DHT22;6639;50.956;4.242;2023-07-20T10:27:57;33.50;78.20
13148;DHT22;6639;50.956;4.242;2023-07-20T10:30:25;33.50;80.30
13148;DHT22;6639;50.956;4.242;2023-07-20T10:32:53;33.90;78.00
13148;DHT22;6639;50.956;4.242;2023-07-20T10:35:20;34.10;77.50
13148;DHT22;6639;50.956;4.242;2023-07-20T10:37:54;33.90;77.20
13148;DHT22;6639;50.956;4.242;2023-07-20T10:40:29;33.70;77.20
13148;DHT22;6639;50.956;4.242;2023-07-20T10:43:01;33.50;76.80
13148;DHT22;6639;50.956;4.242;2023-07-20T10:45:48;33.40;78.20
13148;DHT22;6639;50.956;4.242;2023-07-20T10:48:16;33.50;76.00
13148;DHT22;6639;50.956;4.242;2023-07-20T10:50:45;33.60;75.30
13148;DHT22;6639;50.956;4.242;2023-07-20T10:53:13;34.10;76.30
13148;DHT22;6639;50.956;4.242;2023-07-20T10:55:42;33.70;75.20
13148;DHT22;6639;50.956;4.242;2023-07-20T10:58:10;33.70;74.30
13148;DHT22;6639;50.956;4.242;2023-07-20T11:00:38;33.90;74.50
13148;DHT22;6639;50.956;4.242;2023-07-20T11:03:29;34.00;76.30
13148;DHT22;6639;50.956;4.242;2023-07-20T11:05:57;34.50;75.60
13148;DHT22;6639;50.956;4.242;2023-07-20T11:08:41;34.60;77.30
13148;DHT22;6639;50.956;4.242;2023-07-20T11:11:26;34.70;74.20
13148;DHT22;6639;50.956;4.242;2023-07-20T11:13:55;34.50;73.10
13148;DHT22;6639;50.956;4.242;2023-07-20T11:16:33;34.30;73.20
13148;DHT22;6639;50.956;4.242;2023-07-20T11:19:01;33.90;73.10
13148;DHT22;6639;50.956;4.242;2023-07-20T11:21:28;33.70;73.40
13148;DHT22;6639;50.956;4.242;2023-07-20T11:23:55;33.40;72.90
13148;DHT22;6639;50.956;4.242;2023-07-20T11:26:22;33.30;74.10
13148;DHT22;6639;50.956;4.242;2023-07-20T11:28:51;33.40;74.20
13148;DHT22;6639;50.956;4.242;2023-07-20T11:31:18;32.70;75.10
13148;DHT22;6639;50.956;4.242;2023-07-20T11:33:45;32.00;76.20
13148;DHT22;6639;50.956;4.242;2023-07-20T11:36:12;32.30;76.20
13148;DHT22;6639;50.956;4.242;2023-07-20T11:38:41;32.20;76.90
13148;DHT22;6639;50.956;4.242;2023-07-20T11:41:09;32.10;77.70
13148;DHT22;6639;50.956;4.242;2023-07-20T11:43:36;32.00;79.40
13148;DHT22;6639;50.956;4.242;2023-07-20T11:46:06;31.70;78.60
13148;DHT22;6639;50.956;4.242;2023-07-20T11:48:33;32.00;79.20
13148;DHT22;6639;50.956;4.242;2023-07-20T11:50:59;32.30;78.80
13148;DHT22;6639;50.956;4.242;2023-07-20T11:53:26;32.10;78.90
13148;DHT22;6639;50.956;4.242;2023-07-20T11:55:54;32.20;78.60
13148;DHT22;6639;50.956;4.242;2023-07-20T11:58:21;32.10;77.30
13148;DHT22;6639;50.956;4.242;2023-07-20T12:00:48;32.40;76.40
13148;DHT22;6639;50.956;4.242;2023-07-20T12:03:16;32.60;78.20
13148;DHT22;6639;50.956;4.242;2023-07-20T12:05:44;32.60;77.60
13148;DHT22;6639;50.956;4.242;2023-07-20T12:08:11;32.70;77.10
13148;DHT22;6639;50.956;4.242;2023-07-20T12:10:40;32.90;75.40
13148;DHT22;6639;50.956;4.242;2023-07-20T12:13:10;32.70;77.50
13148;DHT22;6639;50.956;4.242;2023-07-20T12:15:38;32.70;77.00
13148;DHT22;6639;50.956;4.242;2023-07-20T12:18:05;32.30;78.00
13148;DHT22;6639;50.956;4.242;2023-07-20T12:20:34;32.40;75.50
13148;DHT22;6639;50.956;4.242;2023-07-20T12:23:03;32.60;76.80
13148;DHT22;6639;50.956;4.242;2023-07-20T12:25:36;32.50;76.30
13148;DHT22;6639;50.956;4.242;2023-07-20T12:28:05;32.80;77.30
13148;DHT22;6639;50.956;4.242;2023-07-20T12:30:31;32.70;75.40
13148;DHT22;6639;50.956;4.242;2023-07-20T12:32:58;32.30;76.00
13148;DHT22;6639;50.956;4.242;2023-07-20T12:35:25;32.30;74.90
13148;DHT22;6639;50.956;4.242;2023-07-20T12:37:54;32.40;75.60
13148;DHT22;6639;50.956;4.242;2023-07-20T12:40:21;32.10;76.50
13148;DHT22;6639;50.956;4.242;2023-07-20T12:42:48;31.60;77.00
13148;DHT22;6639;50.956;4.242;2023-07-20T12:45:15;31.50;78.10
13148;DHT22;6639;50.956;4.242;2023-07-20T12:47:42;31.50;76.80
13148;DHT22;6639;50.956;4.242;2023-07-20T12:50:09;31.20;77.10
13148;DHT22;6639;50.956;4.242;2023-07-20T12:52:37;30.60;78.10
13148;DHT22;6639;50.956;4.242;2023-07-20T12:55:07;30.70;78.90
13148;DHT22;6639;50.956;4.242;2023-07-20T12:57:35;30.80;78.80
13148;DHT22;6639;50.956;4.242;2023-07-20T13:00:02;30.30;79.40
13148;DHT22;6639;50.956;4.242;2023-07-20T13:02:30;30.50;79.60
13148;DHT22;6639;50.956;4.242;2023-07-20T13:04:57;30.70;79.70
13148;DHT22;6639;50.956;4.242;2023-07-20T13:07:30;30.70;78.70
13148;DHT22;6639;50.956;4.242;2023-07-20T13:09:57;30.10;80.90
13148;DHT22;6639;50.956;4.242;2023-07-20T13:12:27;30.30;80.50
13148;DHT22;6639;50.956;4.242;2023-07-20T13:14:54;30.30;81.10
13148;DHT22;6639;50.956;4.242;2023-07-20T13:17:21;30.40;81.10
13148;DHT22;6639;50.956;4.242;2023-07-20T13:19:48;30.20;81.00
13148;DHT22;6639;50.956;4.242;2023-07-20T13:22:16;30.00;81.90
13148;DHT22;6639;50.956;4.242;2023-07-20T13:24:45;30.20;81.60
13148;DHT22;6639;50.956;4.242;2023-07-20T13:27:14;30.00;82.20
13148;DHT22;6639;50.956;4.242;2023-07-20T13:29:43;29.70;82.80
13148;DHT22;6639;50.956;4.242;2023-07-20T13:32:10;29.80;83.30
13148;DHT22;6639;50.956;4.242;2023-07-20T13:34:37;29.70;83.90
13148;DHT22;6639;50.956;4.242;2023-07-20T13:37:04;29.70;85.30
13148;DHT22;6639;50.956;4.242;2023-07-20T13:39:31;29.70;86.80
13148;DHT22;6639;50.956;4.242;2023-07-20T13:41:58;30.00;87.50
13148;DHT22;6639;50.956;4.242;2023-07-20T13:44:27;30.10;87.30
13148;DHT22;6639;50.956;4.242;2023-07-20T13:46:55;30.40;87.70
13148;DHT22;6639;50.956;4.242;2023-07-20T13:49:22;30.50;86.50
13148;DHT22;6639;50.956;4.242;2023-07-20T13:51:49;30.70;86.30
13148;DHT22;6639;50.956;4.242;2023-07-20T13:54:16;30.90;85.90
13148;DHT22;6639;50.956;4.242;2023-07-20T13:56:43;31.00;84.40
13148;DHT22;6639;50.956;4.242;2023-07-20T13:59:10;31.00;84.30
13148;DHT22;6639;50.956;4.242;2023-07-20T14:01:37;31.00;81.70
13148;DHT22;6639;50.956;4.242;2023-07-20T14:04:05;31.20;81.10
13148;DHT22;6639;50.956;4.242;2023-07-20T14:06:33;31.20;81.20
13148;DHT22;6639;50.956;4.242;2023-07-20T14:09:00;31.20;80.60
13148;DHT22;6639;50.956;4.242;2023-07-20T14:11:29;31.30;80.50
13148;DHT22;6639;50.956;4.242;2023-07-20T14:13:56;31.40;80.60
13148;DHT22;6639;50.956;4.242;2023-07-20T14:16:24;30.80;78.50
13148;DHT22;6639;50.956;4.242;2023-07-20T14:18:51;30.80;79.50
13148;DHT22;6639;50.956;4.242;2023-07-20T14:21:20;30.50;80.50
13148;DHT22;6639;50.956;4.242;2023-07-20T14:23:48;31.10;78.20
13148;DHT22;6639;50.956;4.242;2023-07-20T14:26:16;31.60;78.50
13148;DHT22;6639;50.956;4.242;2023-07-20T14:28:43;30.90;74.90
13148;DHT22;6639;50.956;4.242;2023-07-20T14:31:09;31.00;78.60
13148;DHT22;6639;50.956;4.242;2023-07-20T14:33:36;31.60;77.30
13148;DHT22;6639;50.956;4.242;2023-07-20T14:36:03;31.90;77.10
13148;DHT22;6639;50.956;4.242;2023-07-20T14:38:33;32.10;76.30
13148;DHT22;6639;50.956;4.242;2023-07-20T14:41:01;31.80;74.90
13148;DHT22;6639;50.956;4.242;2023-07-20T14:43:28;31.90;75.00
13148;DHT22;6639;50.956;4.242;2023-07-20T14:45:55;31.90;75.10
13148;DHT22;6639;50.956;4.242;2023-07-20T14:48:22;31.20;74.60
13148;DHT22;6639;50.956;4.242;2023-07-20T14:50:49;31.20;76.20
13148;DHT22;6639;50.956;4.242;2023-07-20T14:53:16;31.40;74.80
13148;DHT22;6639;50.956;4.242;2023-07-20T14:55:49;31.10;76.40
13148;DHT22;6639;50.956;4.242;2023-07-20T14:58:16;31.40;76.40
13148;DHT22;6639;50.956;4.242;2023-07-20T15:00:43;31.70;75.70
13148;DHT22;6639;50.956;4.242;2023-07-20T15:03:10;31.60;75.60
13148;DHT22;6639;50.956;4.242;2023-07-20T15:05:37;31.20;76.10
13148;DHT22;6639;50.956;4.242;2023-07-20T15:08:06;31.30;76.70
13148;DHT22;6639;50.956;4.242;2023-07-20T15:10:36;31.10;77.30
13148;DHT22;6639;50.956;4.242;2023-07-20T15:13:04;31.00;76.60
13148;DHT22;6639;50.956;4.242;2023-07-20T15:15:31;30.90;75.50
13148;DHT22;6639;50.956;4.242;2023-07-20T15:17:58;31.00;76.10
13148;DHT22;6639;50.956;4.242;2023-07-20T15:20:25;31.20;76.80
13148;DHT22;6639;50.956;4.242;2023-07-20T15:22:53;30.60;78.30
13148;DHT22;6639;50.956;4.242;2023-07-20T15:25:20;28.60;85.60
13148;DHT22;6639;50.956;4.242;2023-07-20T15:27:48;27.60;91.60
13148;DHT22;6639;50.956;4.242;2023-07-20T15:30:16;27.00;94.60
13148;DHT22;6639;50.956;4.242;2023-07-20T15:32:43;26.60;95.80
13148;DHT22;6639;50.956;4.242;2023-07-20T15:35:11;26.50;96.80
13148;DHT22;6639;50.956;4.242;2023-07-20T15:37:37;26.50;97.40
13148;DHT22;6639;50.956;4.242;2023-07-20T15:40:06;26.50;97.70
13148;DHT22;6639;50.956;4.242;2023-07-20T15:42:33;26.40;98.20
13148;DHT22;6639;50.956;4.242;2023-07-20T15:45:00;26.70;97.90
13148;DHT22;6639;50.956;4.242;2023-07-20T15:47:28;26.70;98.10
13148;DHT22;6639;50.956;4.242;2023-07-20T15:49:56;26.50;98.20
13148;DHT22;6639;50.956;4.242;2023-07-20T15:52:23;26.70;98.30